Thomas, OK (73669)

9:57 PM CST on February 10, 2016 (GMT -0600)
East Hughes and 5th Street | | Change Station
CLOSE
Current Station
Personal Weather Station
Location: Thomas, OK
Elevation: 1788 ft
Nearby Weather Stations

Elev 1788 ft 35.75 °N, 98.74 °W | Updated 37 seconds ago

Clear
Clear
59.7 °F
Feels Like 59.7 °F
N
4.0
Wind Variable Wind from North
Gusts 4.9 mph

Today
High -- | Low -- °F
--% Chance of Precip.
Yesterday
High -- | Low -- °F
Precip. -- in
Pressure 29.97 in
Visibility 10.0 miles
Clouds Clear
Dew Point 21 °F
Humidity 22%
Rainfall 0.00 in
Snow Depth Not available.
7:27 AM 6:11 PM
Waxing Crescent, 9% visible
METAR KOJA 110355Z AUTO 00000KT 10SM CLR 12/M01 A2997 RMK AO2
Pressure 29.97 in
Visibility 10.0 miles
Clouds Clear
Dew Point 21 °F
Humidity 22%
Rainfall 0.00 in
Snow Depth Not available.
7:27 AM 6:11 PM
Waxing Crescent, 9% visible
METAR KOJA 110355Z AUTO 00000KT 10SM CLR 12/M01 A2997 RMK AO2

10-Day Weather Forecast

Almanac

Astronomy

Feb. 10, 2016 Rise Set
Actual Time
Civil Twilight
Nautical Twilight
Astronomical Twilight
Moon
Length of Visible Light
Length of Day
Tomorrow will be .
, % of the Moon is Illuminated

Today's Extremes

State Highs State Lows

Community

WunderPhotos

Upload Photos

1,892,000 photos uploaded!

WunderBlog® & News

Nearby

Air Quality

  Air Quality AQ Index Pollutant
Not available.

Snow Depth

Station Depth Elevation

Earthquake Activity

City Distance Mag. Time & Date
Minimum magnitude displayed is 2.5.

Coastal Water Temperatures

Place Temperature

Stations

Nearby Weather Stations

Station Location Temp. Windchill Dew Point Humidity Wind Precip. Elev Updated Type
                   

Watches & Warnings

There are currently no watches in effect.